Lucky D — WCW9333 — position and weather

sailwx.info

Track history (hours):
 
Tides and Currents Weather Stations Pressure Air Temp Water Temp Dewpoint Dewpoint Depression Visibility Wind Speed Wind Dir Waves Ship Positions

Lucky D

Owner: Norfolk Tug Co., Norfolk, VA. More information available from US FCC via Universal Licensing System and Coast Guard Vessel Documentation Center.

Last reported at 2017-Nov-22 21:31 UTC. Time now 2017-Nov-23 05:23 UTC.
Position N 36°55' W 076°20'.

; draft 0.4 m.

Type: Tug. MMSI: 528453.

Date/timePositionNaut miles runAvg speedWind from/ knotsBaromVisibWave heightAir tempDewpointWater temp
2017-Nov-22 21:31N 36°55' W 076°20'1 7.3
2017-Nov-22 21:27N 36°55' W 076°20'0 0.3
2017-Nov-22 20:59N 36°55' W 076°20'0 0.0
2017-Nov-22 20:30N 36°55' W 076°20'0 0.0
2017-Nov-22 20:00N 36°55' W 076°20'0 0.0
2017-Nov-22 19:30N 36°55' W 076°20'  
2017-Nov-19 00:49N 36°55' W 076°20'3 7.8
2017-Nov-19 00:30N 36°53' W 076°20'1 3.0
2017-Nov-19 00:00N 36°51' W 076°20'1 2.7
2017-Nov-18 23:30N 36°51' W 076°18'2 3.2
2017-Nov-18 23:00N 36°50' W 076°16'0 0.0
2017-Nov-18 22:30N 36°50' W 076°16'0 0.0
2017-Nov-18 22:00N 36°50' W 076°16'0 0.0
2017-Nov-18 21:30N 36°50' W 076°16'0 0.0
2017-Nov-18 21:00N 36°50' W 076°16'0 0.0
2017-Nov-18 20:30N 36°50' W 076°16'0 0.0
2017-Nov-18 20:00N 36°50' W 076°16'0 0.0
2017-Nov-18 19:30N 36°50' W 076°16'0 0.6
2017-Nov-18 19:00N 36°50' W 076°17'3 5.4
2017-Nov-18 18:30N 36°51' W 076°20'1 2.6
2017-Nov-18 18:00N 36°53' W 076°20'1 1.5
2017-Nov-18 17:30N 36°53' W 076°21'0 0.0
2017-Nov-18 17:00N 36°53' W 076°21'0 0.0
2017-Nov-18 16:29N 36°53' W 076°21'0 0.0
2017-Nov-18 15:57N 36°53' W 076°21'0 0.0
2017-Nov-18 15:30N 36°53' W 076°21'0 0.0
2017-Nov-18 15:00N 36°53' W 076°21'0 0.0
2017-Nov-18 14:30N 36°53' W 076°21'0 0.0
2017-Nov-18 13:54N 36°53' W 076°21'0 0.0
2017-Nov-18 13:27N 36°53' W 076°21'0 0.0
2017-Nov-18 12:20N 36°53' W 076°21'0 0.0
2017-Nov-18 11:27N 36°53' W 076°21'1 2.6
2017-Nov-18 11:00N 36°54' W 076°20'2 0.1
2017-Nov-17 04:10N 36°56' W 076°20'1 7.0
2017-Nov-17 04:00N 36°55' W 076°20'0 0.1
2017-Nov-17 03:30N 36°55' W 076°20'0 0.0
2017-Nov-17 03:00N 36°55' W 076°20'0 0.0
2017-Nov-17 02:30N 36°55' W 076°20'0 0.0
2017-Nov-17 01:59N 36°55' W 076°20'0 0.0
2017-Nov-17 01:30N 36°55' W 076°20'0 0.0
2017-Nov-17 01:00N 36°55' W 076°20'0 0.0
2017-Nov-17 00:29N 36°55' W 076°20'0 0.0
2017-Nov-17 00:00N 36°55' W 076°20'0 0.0
2017-Nov-16 23:30N 36°55' W 076°20'0 0.0
2017-Nov-16 23:00N 36°55' W 076°20'0 0.0
2017-Nov-16 22:30N 36°55' W 076°20'0 0.0
2017-Nov-16 22:00N 36°55' W 076°20'0 0.0
2017-Nov-16 21:29N 36°55' W 076°20'0 0.0
2017-Nov-16 21:00N 36°55' W 076°20'0 0.0
2017-Nov-16 20:30N 36°55' W 076°20'0 0.2
2017-Nov-16 19:59N 36°55' W 076°20'2 4.5
2017-Nov-16 19:30N 36°53' W 076°21'0 0.7
2017-Nov-16 18:57N 36°53' W 076°21'0 0.0
2017-Nov-16 18:29N 36°53' W 076°21'0 0.0
2017-Nov-16 18:00N 36°53' W 076°21'0 0.0
2017-Nov-16 17:24N 36°53' W 076°21'0 0.0
2017-Nov-16 16:58N 36°53' W 076°21'0 0.0
2017-Nov-16 16:30N 36°53' W 076°21'0 0.0
2017-Nov-16 16:00N 36°53' W 076°21'0 0.0
2017-Nov-16 15:13N 36°53' W 076°21'0 0.0
2017-Nov-16 15:00N 36°53' W 076°21'0 0.0
2017-Nov-16 14:20N 36°53' W 076°21'0 0.0
2017-Nov-16 13:57N 36°53' W 076°21'0 0.0
2017-Nov-16 13:30N 36°53' W 076°21'0 0.0
2017-Nov-16 13:00N 36°53' W 076°21'1 1.2
2017-Nov-16 12:30N 36°53' W 076°20'4 8.0
2017-Nov-16 12:00N 36°57' W 076°21'1 0.0
2017-Nov-15 02:32N 36°56' W 076°20'0 8.0
2017-Nov-15 02:29N 36°55' W 076°20'3 5.4
2017-Nov-15 01:58N 36°53' W 076°21'0 0.4
2017-Nov-15 01:27N 36°53' W 076°21'0 0.0
2017-Nov-15 01:00N 36°53' W 076°21'0 0.0
2017-Nov-15 00:30N 36°53' W 076°21'0 0.0
2017-Nov-15 00:00N 36°53' W 076°21'0 0.0
2017-Nov-14 23:30N 36°53' W 076°21'0 0.0
2017-Nov-14 23:00N 36°53' W 076°21'0 0.0
2017-Nov-14 22:30N 36°53' W 076°21'0 0.0
2017-Nov-14 22:00N 36°53' W 076°21'0 0.0
2017-Nov-14 21:30N 36°53' W 076°21'0 0.0
2017-Nov-14 21:00N 36°53' W 076°21'0 0.0
2017-Nov-14 20:30N 36°53' W 076°21'1 1.1
2017-Nov-14 20:00N 36°53' W 076°20'3 5.6
2017-Nov-14 19:30N 36°55' W 076°20'0 0.0
2017-Nov-14 18:44N 36°55' W 076°20'0 0.0
2017-Nov-14 18:12N 36°55' W 076°20'0 0.0
2017-Nov-14 17:54N 36°55' W 076°20'0 0.0
2017-Nov-14 17:29N 36°55' W 076°20'0 0.0
2017-Nov-14 16:59N 36°55' W 076°20'0 0.0
2017-Nov-14 16:05N 36°55' W 076°20'0 0.0
2017-Nov-14 15:47N 36°55' W 076°20'0 0.1
2017-Nov-14 15:29N 36°55' W 076°20'0 0.0
2017-Nov-14 14:53N 36°55' W 076°20'0 0.0
2017-Nov-14 13:44N 36°55' W 076°20'0 0.0
2017-Nov-14 13:29N 36°55' W 076°20'0 0.0
2017-Nov-14 12:59N 36°55' W 076°20'0 0.0
2017-Nov-14 12:30N 36°55' W 076°20'1 1.2
2017-Nov-14 12:00N 36°56' W 076°20'1 0.0
2017-Nov-12 23:39N 36°57' W 076°20'1 7.9
2017-Nov-12 23:28N 36°55' W 076°20'3 6.4
2017-Nov-12 23:00N 36°52' W 076°20'0 0.7
2017-Nov-12 22:30N 36°52' W 076°20'1 1.1
2017-Nov-12 22:00N 36°51' W 076°19'  
Track history (hours):
 
Tides and Currents Weather Stations Pressure Air Temp Water Temp Dewpoint Dewpoint Depression Visibility Wind Speed Wind Dir Waves Ship Positions

Lucky D

Owner: Norfolk Tug Co., Norfolk, VA. More information available from US FCC via Universal Licensing System and Coast Guard Vessel Documentation Center.

Last reported at 2017-Nov-22 21:31 UTC. Time now 2017-Nov-23 05:23 UTC.
Position N 36°55' W 076°20'.

; draft 0.4 m.

Type: Tug. MMSI: 528453.

Date/timePositionNaut miles runAvg speedWind from/ knotsBaromVisibWave heightAir tempDewpointWater temp
2017-Nov-22 21:31N 36°55' W 076°20'1 7.3
2017-Nov-22 21:27N 36°55' W 076°20'0 0.3
2017-Nov-22 20:59N 36°55' W 076°20'0 0.0
2017-Nov-22 20:30N 36°55' W 076°20'0 0.0
2017-Nov-22 20:00N 36°55' W 076°20'0 0.0
2017-Nov-22 19:30N 36°55' W 076°20'  
2017-Nov-19 00:49N 36°55' W 076°20'3 7.8
2017-Nov-19 00:30N 36°53' W 076°20'1 3.0
2017-Nov-19 00:00N 36°51' W 076°20'1 2.7
2017-Nov-18 23:30N 36°51' W 076°18'2 3.2
2017-Nov-18 23:00N 36°50' W 076°16'0 0.0
2017-Nov-18 22:30N 36°50' W 076°16'0 0.0
2017-Nov-18 22:00N 36°50' W 076°16'0 0.0
2017-Nov-18 21:30N 36°50' W 076°16'0 0.0
2017-Nov-18 21:00N 36°50' W 076°16'0 0.0
2017-Nov-18 20:30N 36°50' W 076°16'0 0.0
2017-Nov-18 20:00N 36°50' W 076°16'0 0.0
2017-Nov-18 19:30N 36°50' W 076°16'0 0.6
2017-Nov-18 19:00N 36°50' W 076°17'3 5.4
2017-Nov-18 18:30N 36°51' W 076°20'1 2.6
2017-Nov-18 18:00N 36°53' W 076°20'1 1.5
2017-Nov-18 17:30N 36°53' W 076°21'0 0.0
2017-Nov-18 17:00N 36°53' W 076°21'0 0.0
2017-Nov-18 16:29N 36°53' W 076°21'0 0.0
2017-Nov-18 15:57N 36°53' W 076°21'0 0.0
2017-Nov-18 15:30N 36°53' W 076°21'0 0.0
2017-Nov-18 15:00N 36°53' W 076°21'0 0.0
2017-Nov-18 14:30N 36°53' W 076°21'0 0.0
2017-Nov-18 13:54N 36°53' W 076°21'0 0.0
2017-Nov-18 13:27N 36°53' W 076°21'0 0.0
2017-Nov-18 12:20N 36°53' W 076°21'0 0.0
2017-Nov-18 11:27N 36°53' W 076°21'1 2.6
2017-Nov-18 11:00N 36°54' W 076°20'2 0.1
2017-Nov-17 04:10N 36°56' W 076°20'1 7.0
2017-Nov-17 04:00N 36°55' W 076°20'0 0.1
2017-Nov-17 03:30N 36°55' W 076°20'0 0.0
2017-Nov-17 03:00N 36°55' W 076°20'0 0.0
2017-Nov-17 02:30N 36°55' W 076°20'0 0.0
2017-Nov-17 01:59N 36°55' W 076°20'0 0.0
2017-Nov-17 01:30N 36°55' W 076°20'0 0.0
2017-Nov-17 01:00N 36°55' W 076°20'0 0.0
2017-Nov-17 00:29N 36°55' W 076°20'0 0.0
2017-Nov-17 00:00N 36°55' W 076°20'0 0.0
2017-Nov-16 23:30N 36°55' W 076°20'0 0.0
2017-Nov-16 23:00N 36°55' W 076°20'0 0.0
2017-Nov-16 22:30N 36°55' W 076°20'0 0.0
2017-Nov-16 22:00N 36°55' W 076°20'0 0.0
2017-Nov-16 21:29N 36°55' W 076°20'0 0.0
2017-Nov-16 21:00N 36°55' W 076°20'0 0.0
2017-Nov-16 20:30N 36°55' W 076°20'0 0.2
2017-Nov-16 19:59N 36°55' W 076°20'2 4.5
2017-Nov-16 19:30N 36°53' W 076°21'0 0.7
2017-Nov-16 18:57N 36°53' W 076°21'0 0.0
2017-Nov-16 18:29N 36°53' W 076°21'0 0.0
2017-Nov-16 18:00N 36°53' W 076°21'0 0.0
2017-Nov-16 17:24N 36°53' W 076°21'0 0.0
2017-Nov-16 16:58N 36°53' W 076°21'0 0.0
2017-Nov-16 16:30N 36°53' W 076°21'0 0.0
2017-Nov-16 16:00N 36°53' W 076°21'0 0.0
2017-Nov-16 15:13N 36°53' W 076°21'0 0.0
2017-Nov-16 15:00N 36°53' W 076°21'0 0.0
2017-Nov-16 14:20N 36°53' W 076°21'0 0.0
2017-Nov-16 13:57N 36°53' W 076°21'0 0.0
2017-Nov-16 13:30N 36°53' W 076°21'0 0.0
2017-Nov-16 13:00N 36°53' W 076°21'1 1.2
2017-Nov-16 12:30N 36°53' W 076°20'4 8.0
2017-Nov-16 12:00N 36°57' W 076°21'1 0.0
2017-Nov-15 02:32N 36°56' W 076°20'0 8.0
2017-Nov-15 02:29N 36°55' W 076°20'3 5.4
2017-Nov-15 01:58N 36°53' W 076°21'0 0.4
2017-Nov-15 01:27N 36°53' W 076°21'0 0.0
2017-Nov-15 01:00N 36°53' W 076°21'0 0.0
2017-Nov-15 00:30N 36°53' W 076°21'0 0.0
2017-Nov-15 00:00N 36°53' W 076°21'0 0.0
2017-Nov-14 23:30N 36°53' W 076°21'0 0.0
2017-Nov-14 23:00N 36°53' W 076°21'0 0.0
2017-Nov-14 22:30N 36°53' W 076°21'0 0.0
2017-Nov-14 22:00N 36°53' W 076°21'0 0.0
2017-Nov-14 21:30N 36°53' W 076°21'0 0.0
2017-Nov-14 21:00N 36°53' W 076°21'0 0.0
2017-Nov-14 20:30N 36°53' W 076°21'1 1.1
2017-Nov-14 20:00N 36°53' W 076°20'3 5.6
2017-Nov-14 19:30N 36°55' W 076°20'0 0.0
2017-Nov-14 18:44N 36°55' W 076°20'0 0.0
2017-Nov-14 18:12N 36°55' W 076°20'0 0.0
2017-Nov-14 17:54N 36°55' W 076°20'0 0.0
2017-Nov-14 17:29N 36°55' W 076°20'0 0.0
2017-Nov-14 16:59N 36°55' W 076°20'0 0.0
2017-Nov-14 16:05N 36°55' W 076°20'0 0.0
2017-Nov-14 15:47N 36°55' W 076°20'0 0.1
2017-Nov-14 15:29N 36°55' W 076°20'0 0.0
2017-Nov-14 14:53N 36°55' W 076°20'0 0.0
2017-Nov-14 13:44N 36°55' W 076°20'0 0.0
2017-Nov-14 13:29N 36°55' W 076°20'0 0.0
2017-Nov-14 12:59N 36°55' W 076°20'0 0.0
2017-Nov-14 12:30N 36°55' W 076°20'1 1.2
2017-Nov-14 12:00N 36°56' W 076°20'1 0.0
2017-Nov-12 23:39N 36°57' W 076°20'1 7.9
2017-Nov-12 23:28N 36°55' W 076°20'3 6.4
2017-Nov-12 23:00N 36°52' W 076°20'0 0.7
2017-Nov-12 22:30N 36°52' W 076°20'1 1.1
2017-Nov-12 22:00N 36°51' W 076°19'  

Dump ship's entire track history